map of BCN home
BCN - Airport
Location
City:  Barcelona, Catalonia, Spain
Near (Alt.):El Prat del Llobregat
Name:El Prat
Old (Alt.):Barcelona International Airport
ICAO:LEBL
IATA:BCN

Details
Type:Airport (Aerodrome, Airfield)
Use:Public/Civil, International (customs port of entry)
Latitude:4117'49"N (41.297078)
Longitude:204'42"E (2.078464)
Datum:WGS 1984
Elevation:12 ft (4 m)
Variation:0.84E (WMM2015 magnetic declination)
0.11 annual change
Runways:3
Longest:11654 × 148 ft (3552 × 45 m), paved

Time
Time Zone:UTC+1 (DST+2)
Local Time:

Weather
METAR:LEBL 250000Z 33005KT 9999 FEW025 05/02 Q1010 NOSIG
TAF:LEBL 242300Z 2500/2524 33008KT 9999 SCT020 TX15/2512Z TN03/2506Z PROB40
TEMPO 2504/2510 33010G20KT
BECMG 2511/2513 19008KT
BECMG 2518/2520 33007KT

Related Locations
Nearby:
Farthest:CHT: 12243 mi / 19703 km
Waitangi [Tuuta], CIT, NZ

Find:

   beyond  
but within

Other Information
Maps:
NOTAMs:
Links:
Sources:

  
flag of Spain
flag of Catalonia
  

Sectional Chart

Flight Planning
at skyvector.com

Satellite Image

Google Maps Satellite view

 

Copyright © 2004-2018 Karl L. Swartz. All rights reserved.
The Great Circle Mapper name and logo are trademarks of the Great Circle Mapper.
All other trademarks mentioned herein belong to their respective owners.
Please see credits for attibutions and further copyright information.

  Follow gcmap on Facebook Follow gcmap on Twitter Follow gcmap on Google+ GCmap on LinkedIn

hCard Microformat

Geo Microformat